sensor_id;sensor_type;location;lat;lon;timestamp;P1;durP1;ratioP1;P2;durP2;ratioP2
29184;SDS011;16233;47.964;-3.842;2022-11-23T00:00:16;21.63;;;20.50;;
29184;SDS011;16233;47.964;-3.842;2022-11-23T00:02:19;21.15;;;20.10;;
29184;SDS011;16233;47.964;-3.842;2022-11-23T00:04:20;21.05;;;20.10;;
29184;SDS011;16233;47.964;-3.842;2022-11-23T00:06:21;20.75;;;19.75;;
29184;SDS011;16233;47.964;-3.842;2022-11-23T00:08:23;20.48;;;19.58;;
29184;SDS011;16233;47.964;-3.842;2022-11-23T00:10:24;22.40;;;20.77;;
29184;SDS011;16233;47.964;-3.842;2022-11-23T00:12:25;22.10;;;20.50;;
29184;SDS011;16233;47.964;-3.842;2022-11-23T00:14:26;20.90;;;19.70;;
29184;SDS011;16233;47.964;-3.842;2022-11-23T00:16:28;20.60;;;19.65;;
29184;SDS011;16233;47.964;-3.842;2022-11-23T00:18:31;20.83;;;19.77;;
29184;SDS011;16233;47.964;-3.842;2022-11-23T00:20:32;21.23;;;20.23;;
29184;SDS011;16233;47.964;-3.842;2022-11-23T00:22:34;19.23;;;18.38;;
29184;SDS011;16233;47.964;-3.842;2022-11-23T00:24:35;19.55;;;18.65;;
29184;SDS011;16233;47.964;-3.842;2022-11-23T00:26:36;19.98;;;19.08;;
29184;SDS011;16233;47.964;-3.842;2022-11-23T00:28:37;19.42;;;18.52;;
29184;SDS011;16233;47.964;-3.842;2022-11-23T00:30:38;20.55;;;19.48;;
29184;SDS011;16233;47.964;-3.842;2022-11-23T00:32:39;20.30;;;19.30;;
29184;SDS011;16233;47.964;-3.842;2022-11-23T00:34:42;18.77;;;17.98;;
29184;SDS011;16233;47.964;-3.842;2022-11-23T00:36:43;20.02;;;19.13;;
29184;SDS011;16233;47.964;-3.842;2022-11-23T00:38:44;21.88;;;20.88;;
29184;SDS011;16233;47.964;-3.842;2022-11-23T00:40:45;19.85;;;18.95;;
29184;SDS011;16233;47.964;-3.842;2022-11-23T00:42:46;19.95;;;19.05;;
29184;SDS011;16233;47.964;-3.842;2022-11-23T00:44:47;19.80;;;18.95;;
29184;SDS011;16233;47.964;-3.842;2022-11-23T00:46:48;22.55;;;21.55;;
29184;SDS011;16233;47.964;-3.842;2022-11-23T00:48:49;21.98;;;20.98;;
29184;SDS011;16233;47.964;-3.842;2022-11-23T00:50:53;19.13;;;18.33;;
29184;SDS011;16233;47.964;-3.842;2022-11-23T00:52:54;21.55;;;20.17;;
29184;SDS011;16233;47.964;-3.842;2022-11-23T00:54:55;21.65;;;20.70;;
29184;SDS011;16233;47.964;-3.842;2022-11-23T00:56:56;22.83;;;21.70;;
29184;SDS011;16233;47.964;-3.842;2022-11-23T00:58:58;19.85;;;18.95;;
29184;SDS011;16233;47.964;-3.842;2022-11-23T01:01:00;19.98;;;19.08;;
29184;SDS011;16233;47.964;-3.842;2022-11-23T01:03:03;20.42;;;19.52;;
29184;SDS011;16233;47.964;-3.842;2022-11-23T01:05:04;20.88;;;19.75;;
29184;SDS011;16233;47.964;-3.842;2022-11-23T01:07:07;19.77;;;18.90;;
29184;SDS011;16233;47.964;-3.842;2022-11-23T01:09:14;19.83;;;18.90;;
29184;SDS011;16233;47.964;-3.842;2022-11-23T01:11:17;20.88;;;18.75;;
29184;SDS011;16233;47.964;-3.842;2022-11-23T01:13:19;20.42;;;19.52;;
29184;SDS011;16233;47.964;-3.842;2022-11-23T01:15:20;20.63;;;19.73;;
29184;SDS011;16233;47.964;-3.842;2022-11-23T01:17:21;19.80;;;18.90;;
29184;SDS011;16233;47.964;-3.842;2022-11-23T01:19:22;19.52;;;18.67;;
29184;SDS011;16233;47.964;-3.842;2022-11-23T01:21:23;23.83;;;22.65;;
29184;SDS011;16233;47.964;-3.842;2022-11-23T01:23:28;20.67;;;19.33;;
29184;SDS011;16233;47.964;-3.842;2022-11-23T01:25:29;20.02;;;19.13;;
29184;SDS011;16233;47.964;-3.842;2022-11-23T01:27:30;19.88;;;18.98;;
29184;SDS011;16233;47.964;-3.842;2022-11-23T01:29:31;20.15;;;19.05;;
29184;SDS011;16233;47.964;-3.842;2022-11-23T01:31:32;21.60;;;20.60;;
29184;SDS011;16233;47.964;-3.842;2022-11-23T01:33:34;20.70;;;18.98;;
29184;SDS011;16233;47.964;-3.842;2022-11-23T01:35:35;21.05;;;19.95;;
29184;SDS011;16233;47.964;-3.842;2022-11-23T01:37:36;20.10;;;18.90;;
29184;SDS011;16233;47.964;-3.842;2022-11-23T01:39:38;21.63;;;20.27;;
29184;SDS011;16233;47.964;-3.842;2022-11-23T01:41:40;21.25;;;19.83;;
29184;SDS011;16233;47.964;-3.842;2022-11-23T01:43:43;21.48;;;19.88;;
29184;SDS011;16233;47.964;-3.842;2022-11-23T01:45:52;23.95;;;22.00;;
29184;SDS011;16233;47.964;-3.842;2022-11-23T01:47:56;20.63;;;19.23;;
29184;SDS011;16233;47.964;-3.842;2022-11-23T01:49:57;21.02;;;19.20;;
29184;SDS011;16233;47.964;-3.842;2022-11-23T01:51:58;23.90;;;21.30;;
29184;SDS011;16233;47.964;-3.842;2022-11-23T01:54:06;24.80;;;19.30;;
29184;SDS011;16233;47.964;-3.842;2022-11-23T01:56:13;23.95;;;20.88;;
29184;SDS011;16233;47.964;-3.842;2022-11-23T01:58:17;28.38;;;21.95;;
29184;SDS011;16233;47.964;-3.842;2022-11-23T02:00:21;28.95;;;21.42;;
29184;SDS011;16233;47.964;-3.842;2022-11-23T02:02:22;30.65;;;21.55;;
29184;SDS011;16233;47.964;-3.842;2022-11-23T02:04:28;28.23;;;21.95;;
29184;SDS011;16233;47.964;-3.842;2022-11-23T02:06:32;28.77;;;21.08;;
29184;SDS011;16233;47.964;-3.842;2022-11-23T02:08:34;32.67;;;23.48;;
29184;SDS011;16233;47.964;-3.842;2022-11-23T02:10:36;31.40;;;23.80;;
29184;SDS011;16233;47.964;-3.842;2022-11-23T02:12:38;32.72;;;21.77;;
29184;SDS011;16233;47.964;-3.842;2022-11-23T02:14:39;35.20;;;22.95;;
29184;SDS011;16233;47.964;-3.842;2022-11-23T02:16:41;41.53;;;22.88;;
29184;SDS011;16233;47.964;-3.842;2022-11-23T02:18:42;39.83;;;24.25;;
29184;SDS011;16233;47.964;-3.842;2022-11-23T02:20:45;39.80;;;26.08;;
29184;SDS011;16233;47.964;-3.842;2022-11-23T02:22:49;54.58;;;25.88;;
29184;SDS011;16233;47.964;-3.842;2022-11-23T02:24:58;57.75;;;26.85;;
29184;SDS011;16233;47.964;-3.842;2022-11-23T02:27:05;60.30;;;24.13;;
29184;SDS011;16233;47.964;-3.842;2022-11-23T02:29:06;73.18;;;29.73;;
29184;SDS011;16233;47.964;-3.842;2022-11-23T02:31:10;63.20;;;26.67;;
29184;SDS011;16233;47.964;-3.842;2022-11-23T02:33:11;89.07;;;31.30;;
29184;SDS011;16233;47.964;-3.842;2022-11-23T02:35:12;75.45;;;30.23;;
29184;SDS011;16233;47.964;-3.842;2022-11-23T02:37:13;71.03;;;28.05;;
29184;SDS011;16233;47.964;-3.842;2022-11-23T02:39:16;87.70;;;29.98;;
29184;SDS011;16233;47.964;-3.842;2022-11-23T02:41:21;86.80;;;31.67;;
29184;SDS011;16233;47.964;-3.842;2022-11-23T02:43:23;87.32;;;32.78;;
29184;SDS011;16233;47.964;-3.842;2022-11-23T02:45:30;81.10;;;30.58;;
29184;SDS011;16233;47.964;-3.842;2022-11-23T02:47:35;62.33;;;29.55;;
29184;SDS011;16233;47.964;-3.842;2022-11-23T02:49:37;62.05;;;29.77;;
29184;SDS011;16233;47.964;-3.842;2022-11-23T02:51:39;100.00;;;31.88;;
29184;SDS011;16233;47.964;-3.842;2022-11-23T02:53:40;69.35;;;31.05;;
29184;SDS011;16233;47.964;-3.842;2022-11-23T02:55:41;67.05;;;32.85;;
29184;SDS011;16233;47.964;-3.842;2022-11-23T02:57:43;84.50;;;36.08;;
29184;SDS011;16233;47.964;-3.842;2022-11-23T02:59:45;70.43;;;30.42;;
29184;SDS011;16233;47.964;-3.842;2022-11-23T03:01:46;96.18;;;30.33;;
29184;SDS011;16233;47.964;-3.842;2022-11-23T03:03:48;97.38;;;34.08;;
29184;SDS011;16233;47.964;-3.842;2022-11-23T03:05:49;103.43;;;34.70;;
29184;SDS011;16233;47.964;-3.842;2022-11-23T03:07:50;82.03;;;30.20;;
29184;SDS011;16233;47.964;-3.842;2022-11-23T03:09:51;113.28;;;36.25;;
29184;SDS011;16233;47.964;-3.842;2022-11-23T03:11:52;81.07;;;33.17;;
29184;SDS011;16233;47.964;-3.842;2022-11-23T03:13:53;93.60;;;31.25;;
29184;SDS011;16233;47.964;-3.842;2022-11-23T03:15:55;98.47;;;33.83;;
29184;SDS011;16233;47.964;-3.842;2022-11-23T03:17:56;62.00;;;28.33;;
29184;SDS011;16233;47.964;-3.842;2022-11-23T03:19:57;91.38;;;31.77;;
29184;SDS011;16233;47.964;-3.842;2022-11-23T03:21:58;116.05;;;34.00;;
29184;SDS011;16233;47.964;-3.842;2022-11-23T03:23:59;74.05;;;36.33;;
29184;SDS011;16233;47.964;-3.842;2022-11-23T03:26:00;65.35;;;30.67;;
29184;SDS011;16233;47.964;-3.842;2022-11-23T03:28:03;65.60;;;30.92;;
29184;SDS011;16233;47.964;-3.842;2022-11-23T03:30:05;92.97;;;30.67;;
29184;SDS011;16233;47.964;-3.842;2022-11-23T03:32:08;75.25;;;31.08;;
29184;SDS011;16233;47.964;-3.842;2022-11-23T03:34:10;57.63;;;28.58;;
29184;SDS011;16233;47.964;-3.842;2022-11-23T03:36:11;108.75;;;33.55;;
29184;SDS011;16233;47.964;-3.842;2022-11-23T03:38:12;64.35;;;29.75;;
29184;SDS011;16233;47.964;-3.842;2022-11-23T03:40:14;97.68;;;30.77;;
29184;SDS011;16233;47.964;-3.842;2022-11-23T03:42:15;85.13;;;34.63;;
29184;SDS011;16233;47.964;-3.842;2022-11-23T03:44:16;90.60;;;34.65;;
29184;SDS011;16233;47.964;-3.842;2022-11-23T03:46:17;75.68;;;33.50;;
29184;SDS011;16233;47.964;-3.842;2022-11-23T03:48:19;68.60;;;28.55;;
29184;SDS011;16233;47.964;-3.842;2022-11-23T03:50:20;99.65;;;33.75;;
29184;SDS011;16233;47.964;-3.842;2022-11-23T03:52:22;69.40;;;32.92;;
29184;SDS011;16233;47.964;-3.842;2022-11-23T03:54:23;78.97;;;30.00;;
29184;SDS011;16233;47.964;-3.842;2022-11-23T03:56:24;56.28;;;28.83;;
29184;SDS011;16233;47.964;-3.842;2022-11-23T03:58:25;83.43;;;31.73;;
29184;SDS011;16233;47.964;-3.842;2022-11-23T04:00:26;66.88;;;27.95;;
29184;SDS011;16233;47.964;-3.842;2022-11-23T04:02:27;58.42;;;28.33;;
29184;SDS011;16233;47.964;-3.842;2022-11-23T04:04:29;59.00;;;30.38;;
29184;SDS011;16233;47.964;-3.842;2022-11-23T04:06:31;68.97;;;29.73;;
29184;SDS011;16233;47.964;-3.842;2022-11-23T04:08:31;53.90;;;29.80;;
29184;SDS011;16233;47.964;-3.842;2022-11-23T04:10:32;58.50;;;28.83;;
29184;SDS011;16233;47.964;-3.842;2022-11-23T04:12:33;42.35;;;28.00;;
29184;SDS011;16233;47.964;-3.842;2022-11-23T04:14:34;40.35;;;25.75;;
29184;SDS011;16233;47.964;-3.842;2022-11-23T04:16:35;40.55;;;27.15;;
29184;SDS011;16233;47.964;-3.842;2022-11-23T04:18:36;31.88;;;23.58;;
29184;SDS011;16233;47.964;-3.842;2022-11-23T04:20:39;45.92;;;26.90;;
29184;SDS011;16233;47.964;-3.842;2022-11-23T04:22:40;33.90;;;25.23;;
29184;SDS011;16233;47.964;-3.842;2022-11-23T04:24:41;30.75;;;25.95;;
29184;SDS011;16233;47.964;-3.842;2022-11-23T04:26:42;30.80;;;26.10;;
29184;SDS011;16233;47.964;-3.842;2022-11-23T04:28:43;36.45;;;33.22;;
29184;SDS011;16233;47.964;-3.842;2022-11-23T04:30:44;31.80;;;25.55;;
29184;SDS011;16233;47.964;-3.842;2022-11-23T04:32:45;28.73;;;25.33;;
29184;SDS011;16233;47.964;-3.842;2022-11-23T04:34:46;29.70;;;25.38;;
29184;SDS011;16233;47.964;-3.842;2022-11-23T04:36:49;29.30;;;26.45;;
29184;SDS011;16233;47.964;-3.842;2022-11-23T04:38:50;24.92;;;22.90;;
29184;SDS011;16233;47.964;-3.842;2022-11-23T04:40:51;25.92;;;23.42;;
29184;SDS011;16233;47.964;-3.842;2022-11-23T04:42:52;26.58;;;23.63;;
29184;SDS011;16233;47.964;-3.842;2022-11-23T04:44:53;26.60;;;24.23;;
29184;SDS011;16233;47.964;-3.842;2022-11-23T04:46:54;22.70;;;21.02;;
29184;SDS011;16233;47.964;-3.842;2022-11-23T04:48:55;22.23;;;21.00;;
29184;SDS011;16233;47.964;-3.842;2022-11-23T04:50:56;21.35;;;19.83;;
29184;SDS011;16233;47.964;-3.842;2022-11-23T04:52:59;24.10;;;22.23;;
29184;SDS011;16233;47.964;-3.842;2022-11-23T04:55:00;24.40;;;22.20;;
29184;SDS011;16233;47.964;-3.842;2022-11-23T04:57:01;23.67;;;21.25;;
29184;SDS011;16233;47.964;-3.842;2022-11-23T04:59:02;21.67;;;20.20;;
29184;SDS011;16233;47.964;-3.842;2022-11-23T05:01:03;22.88;;;21.35;;
29184;SDS011;16233;47.964;-3.842;2022-11-23T05:03:04;23.60;;;21.75;;
29184;SDS011;16233;47.964;-3.842;2022-11-23T05:05:06;22.25;;;20.30;;
29184;SDS011;16233;47.964;-3.842;2022-11-23T05:07:07;23.77;;;22.08;;
29184;SDS011;16233;47.964;-3.842;2022-11-23T05:09:10;25.23;;;23.02;;
29184;SDS011;16233;47.964;-3.842;2022-11-23T05:11:11;23.88;;;22.38;;
29184;SDS011;16233;47.964;-3.842;2022-11-23T05:13:12;22.45;;;20.42;;
29184;SDS011;16233;47.964;-3.842;2022-11-23T05:15:13;23.63;;;21.60;;
29184;SDS011;16233;47.964;-3.842;2022-11-23T05:17:14;23.98;;;21.73;;
29184;SDS011;16233;47.964;-3.842;2022-11-23T05:19:15;24.52;;;22.23;;
29184;SDS011;16233;47.964;-3.842;2022-11-23T05:21:16;23.65;;;21.92;;
29184;SDS011;16233;47.964;-3.842;2022-11-23T05:23:17;24.13;;;22.25;;
29184;SDS011;16233;47.964;-3.842;2022-11-23T05:25:20;23.85;;;21.27;;
29184;SDS011;16233;47.964;-3.842;2022-11-23T05:27:21;24.20;;;21.85;;
29184;SDS011;16233;47.964;-3.842;2022-11-23T05:29:22;25.10;;;22.45;;
29184;SDS011;16233;47.964;-3.842;2022-11-23T05:31:23;31.88;;;25.60;;
29184;SDS011;16233;47.964;-3.842;2022-11-23T05:33:24;25.83;;;23.30;;
29184;SDS011;16233;47.964;-3.842;2022-11-23T05:35:25;31.00;;;23.05;;
29184;SDS011;16233;47.964;-3.842;2022-11-23T05:37:26;28.70;;;20.55;;
29184;SDS011;16233;47.964;-3.842;2022-11-23T05:39:27;30.40;;;21.83;;
29184;SDS011;16233;47.964;-3.842;2022-11-23T05:41:29;27.13;;;22.05;;
29184;SDS011;16233;47.964;-3.842;2022-11-23T05:43:30;31.85;;;24.38;;
29184;SDS011;16233;47.964;-3.842;2022-11-23T05:45:31;34.83;;;21.13;;
29184;SDS011;16233;47.964;-3.842;2022-11-23T05:47:32;33.50;;;24.80;;
29184;SDS011;16233;47.964;-3.842;2022-11-23T05:49:33;32.92;;;22.55;;
29184;SDS011;16233;47.964;-3.842;2022-11-23T05:51:34;35.08;;;22.65;;
29184;SDS011;16233;47.964;-3.842;2022-11-23T05:53:35;37.00;;;24.00;;
29184;SDS011;16233;47.964;-3.842;2022-11-23T05:55:36;28.92;;;21.95;;
29184;SDS011;16233;47.964;-3.842;2022-11-23T05:57:39;33.92;;;24.05;;
29184;SDS011;16233;47.964;-3.842;2022-11-23T05:59:41;26.67;;;23.83;;
29184;SDS011;16233;47.964;-3.842;2022-11-23T06:01:42;32.03;;;24.70;;
29184;SDS011;16233;47.964;-3.842;2022-11-23T06:03:43;41.65;;;24.70;;
29184;SDS011;16233;47.964;-3.842;2022-11-23T06:05:45;41.97;;;26.83;;
29184;SDS011;16233;47.964;-3.842;2022-11-23T06:07:46;26.70;;;22.13;;
29184;SDS011;16233;47.964;-3.842;2022-11-23T06:09:52;38.65;;;24.52;;
29184;SDS011;16233;47.964;-3.842;2022-11-23T06:11:53;29.30;;;23.65;;
29184;SDS011;16233;47.964;-3.842;2022-11-23T06:13:56;31.15;;;23.20;;
29184;SDS011;16233;47.964;-3.842;2022-11-23T06:15:59;32.85;;;23.20;;
29184;SDS011;16233;47.964;-3.842;2022-11-23T06:18:02;30.02;;;24.13;;
29184;SDS011;16233;47.964;-3.842;2022-11-23T06:20:04;33.40;;;25.15;;
29184;SDS011;16233;47.964;-3.842;2022-11-23T06:22:05;33.05;;;23.13;;
29184;SDS011;16233;47.964;-3.842;2022-11-23T06:24:07;31.75;;;25.17;;
29184;SDS011;16233;47.964;-3.842;2022-11-23T06:26:09;27.90;;;23.50;;
29184;SDS011;16233;47.964;-3.842;2022-11-23T06:28:10;28.48;;;24.05;;
29184;SDS011;16233;47.964;-3.842;2022-11-23T06:30:14;33.60;;;24.75;;
29184;SDS011;16233;47.964;-3.842;2022-11-23T06:32:15;28.73;;;24.58;;
29184;SDS011;16233;47.964;-3.842;2022-11-23T06:34:16;28.45;;;23.38;;
29184;SDS011;16233;47.964;-3.842;2022-11-23T06:36:17;25.73;;;23.50;;
29184;SDS011;16233;47.964;-3.842;2022-11-23T06:38:18;27.10;;;24.02;;
29184;SDS011;16233;47.964;-3.842;2022-11-23T06:40:19;29.15;;;23.50;;
29184;SDS011;16233;47.964;-3.842;2022-11-23T06:42:20;26.83;;;23.20;;
29184;SDS011;16233;47.964;-3.842;2022-11-23T06:44:21;28.70;;;25.42;;
29184;SDS011;16233;47.964;-3.842;2022-11-23T06:46:24;34.60;;;27.67;;
29184;SDS011;16233;47.964;-3.842;2022-11-23T06:48:25;34.25;;;24.35;;
29184;SDS011;16233;47.964;-3.842;2022-11-23T06:50:26;32.05;;;26.30;;
29184;SDS011;16233;47.964;-3.842;2022-11-23T06:52:27;24.20;;;21.63;;
29184;SDS011;16233;47.964;-3.842;2022-11-23T06:54:28;27.13;;;23.48;;
29184;SDS011;16233;47.964;-3.842;2022-11-23T06:56:29;35.25;;;23.05;;
29184;SDS011;16233;47.964;-3.842;2022-11-23T06:58:31;24.38;;;21.10;;
29184;SDS011;16233;47.964;-3.842;2022-11-23T07:00:32;33.17;;;25.05;;
29184;SDS011;16233;47.964;-3.842;2022-11-23T07:02:34;26.90;;;22.33;;
29184;SDS011;16233;47.964;-3.842;2022-11-23T07:04:35;31.58;;;22.88;;
29184;SDS011;16233;47.964;-3.842;2022-11-23T07:06:38;27.58;;;21.77;;
29184;SDS011;16233;47.964;-3.842;2022-11-23T07:08:39;37.33;;;24.58;;
29184;SDS011;16233;47.964;-3.842;2022-11-23T07:10:40;25.92;;;22.73;;
29184;SDS011;16233;47.964;-3.842;2022-11-23T07:12:41;29.27;;;21.98;;
29184;SDS011;16233;47.964;-3.842;2022-11-23T07:14:42;26.60;;;23.25;;
29184;SDS011;16233;47.964;-3.842;2022-11-23T07:16:43;29.33;;;22.58;;
29184;SDS011;16233;47.964;-3.842;2022-11-23T07:18:45;31.30;;;25.23;;
29184;SDS011;16233;47.964;-3.842;2022-11-23T07:20:46;34.72;;;23.42;;
29184;SDS011;16233;47.964;-3.842;2022-11-23T07:22:47;30.63;;;27.55;;
29184;SDS011;16233;47.964;-3.842;2022-11-23T07:24:57;33.13;;;23.48;;
29184;SDS011;16233;47.964;-3.842;2022-11-23T07:26:58;37.55;;;25.88;;
29184;SDS011;16233;47.964;-3.842;2022-11-23T07:28:59;31.83;;;27.38;;
29184;SDS011;16233;47.964;-3.842;2022-11-23T07:31:00;34.00;;;26.80;;
29184;SDS011;16233;47.964;-3.842;2022-11-23T07:33:02;1999.90;;;999.90;;
29184;SDS011;16233;47.964;-3.842;2022-11-23T07:35:06;1999.90;;;999.90;;
29184;SDS011;16233;47.964;-3.842;2022-11-23T07:37:07;1999.90;;;999.90;;
29184;SDS011;16233;47.964;-3.842;2022-11-23T07:39:08;1999.90;;;999.90;;
29184;SDS011;16233;47.964;-3.842;2022-11-23T07:41:09;522.03;;;269.15;;
29184;SDS011;16233;47.964;-3.842;2022-11-23T07:43:10;1999.90;;;999.90;;
29184;SDS011;16233;47.964;-3.842;2022-11-23T07:45:11;1999.90;;;999.90;;
29184;SDS011;16233;47.964;-3.842;2022-11-23T07:47:12;1999.90;;;999.90;;
29184;SDS011;16233;47.964;-3.842;2022-11-23T07:49:13;1999.90;;;999.90;;
29184;SDS011;16233;47.964;-3.842;2022-11-23T07:51:15;1999.90;;;999.90;;
29184;SDS011;16233;47.964;-3.842;2022-11-23T07:53:17;1999.90;;;999.90;;
29184;SDS011;16233;47.964;-3.842;2022-11-23T07:55:18;1999.90;;;999.90;;
29184;SDS011;16233;47.964;-3.842;2022-11-23T07:57:19;1999.90;;;999.90;;
29184;SDS011;16233;47.964;-3.842;2022-11-23T07:59:20;1999.90;;;999.90;;
29184;SDS011;16233;47.964;-3.842;2022-11-23T08:01:21;1999.90;;;999.90;;
29184;SDS011;16233;47.964;-3.842;2022-11-23T08:03:22;1999.90;;;999.90;;
29184;SDS011;16233;47.964;-3.842;2022-11-23T08:05:23;1999.90;;;999.90;;
29184;SDS011;16233;47.964;-3.842;2022-11-23T08:07:26;1999.90;;;999.90;;
29184;SDS011;16233;47.964;-3.842;2022-11-23T08:09:27;1999.90;;;999.90;;
29184;SDS011;16233;47.964;-3.842;2022-11-23T08:11:28;1999.90;;;999.90;;
29184;SDS011;16233;47.964;-3.842;2022-11-23T08:13:29;1999.90;;;999.90;;
29184;SDS011;16233;47.964;-3.842;2022-11-23T08:15:30;1999.90;;;999.90;;
29184;SDS011;16233;47.964;-3.842;2022-11-23T08:17:31;1999.90;;;999.90;;
29184;SDS011;16233;47.964;-3.842;2022-11-23T08:19:32;1999.90;;;999.90;;
29184;SDS011;16233;47.964;-3.842;2022-11-23T08:21:33;1999.90;;;999.90;;
29184;SDS011;16233;47.964;-3.842;2022-11-23T08:23:35;1999.90;;;999.90;;
29184;SDS011;16233;47.964;-3.842;2022-11-23T08:25:36;1999.90;;;999.90;;
29184;SDS011;16233;47.964;-3.842;2022-11-23T08:27:37;1999.90;;;999.90;;
29184;SDS011;16233;47.964;-3.842;2022-11-23T08:29:38;1999.90;;;999.90;;
29184;SDS011;16233;47.964;-3.842;2022-11-23T08:31:39;1999.90;;;999.90;;
29184;SDS011;16233;47.964;-3.842;2022-11-23T08:33:40;1999.90;;;999.90;;
29184;SDS011;16233;47.964;-3.842;2022-11-23T08:35:41;1999.90;;;999.90;;
29184;SDS011;16233;47.964;-3.842;2022-11-23T08:37:43;1999.90;;;999.90;;
29184;SDS011;16233;47.964;-3.842;2022-11-23T08:39:45;1999.90;;;999.90;;
29184;SDS011;16233;47.964;-3.842;2022-11-23T08:41:46;1999.90;;;999.90;;
29184;SDS011;16233;47.964;-3.842;2022-11-23T08:43:47;1999.90;;;999.90;;
29184;SDS011;16233;47.964;-3.842;2022-11-23T08:45:48;1999.90;;;999.90;;
29184;SDS011;16233;47.964;-3.842;2022-11-23T08:47:49;1999.90;;;999.90;;
29184;SDS011;16233;47.964;-3.842;2022-11-23T08:49:51;1999.90;;;999.90;;
29184;SDS011;16233;47.964;-3.842;2022-11-23T08:51:52;1999.90;;;999.90;;
29184;SDS011;16233;47.964;-3.842;2022-11-23T08:53:53;1999.90;;;999.90;;
29184;SDS011;16233;47.964;-3.842;2022-11-23T08:55:55;1999.90;;;999.90;;
29184;SDS011;16233;47.964;-3.842;2022-11-23T08:57:59;1999.90;;;999.90;;
29184;SDS011;16233;47.964;-3.842;2022-11-23T09:00:01;1999.90;;;999.90;;
29184;SDS011;16233;47.964;-3.842;2022-11-23T09:02:03;1999.90;;;999.90;;
29184;SDS011;16233;47.964;-3.842;2022-11-23T09:04:04;1999.90;;;999.90;;
29184;SDS011;16233;47.964;-3.842;2022-11-23T09:06:05;1999.90;;;999.90;;
29184;SDS011;16233;47.964;-3.842;2022-11-23T09:08:06;1999.90;;;999.90;;
29184;SDS011;16233;47.964;-3.842;2022-11-23T09:10:08;1999.90;;;999.90;;
29184;SDS011;16233;47.964;-3.842;2022-11-23T09:12:10;1999.90;;;999.90;;
29184;SDS011;16233;47.964;-3.842;2022-11-23T09:14:11;1999.90;;;999.90;;
29184;SDS011;16233;47.964;-3.842;2022-11-23T09:16:12;1999.90;;;999.90;;
29184;SDS011;16233;47.964;-3.842;2022-11-23T09:18:13;1999.90;;;999.90;;
29184;SDS011;16233;47.964;-3.842;2022-11-23T09:20:14;1999.90;;;999.90;;
29184;SDS011;16233;47.964;-3.842;2022-11-23T09:22:15;1999.90;;;999.90;;
29184;SDS011;16233;47.964;-3.842;2022-11-23T09:24:16;1999.90;;;999.90;;
29184;SDS011;16233;47.964;-3.842;2022-11-23T09:26:18;1999.90;;;999.90;;
29184;SDS011;16233;47.964;-3.842;2022-11-23T09:28:21;1018.03;;;516.42;;
29184;SDS011;16233;47.964;-3.842;2022-11-23T09:30:22;524.45;;;271.15;;
29184;SDS011;16233;47.964;-3.842;2022-11-23T09:32:23;1999.90;;;999.90;;
29184;SDS011;16233;47.964;-3.842;2022-11-23T09:34:24;36.65;;;26.65;;
29184;SDS011;16233;47.964;-3.842;2022-11-23T09:36:25;1999.90;;;999.90;;
29184;SDS011;16233;47.964;-3.842;2022-11-23T09:38:26;33.88;;;27.55;;
29184;SDS011;16233;47.964;-3.842;2022-11-23T09:40:28;31.88;;;27.05;;
29184;SDS011;16233;47.964;-3.842;2022-11-23T09:42:40;35.70;;;25.73;;
29184;SDS011;16233;47.964;-3.842;2022-11-23T09:44:56;28.98;;;26.00;;
29184;SDS011;16233;47.964;-3.842;2022-11-23T09:47:11;38.72;;;26.88;;
29184;SDS011;16233;47.964;-3.842;2022-11-23T09:49:25;29.10;;;26.13;;
29184;SDS011;16233;47.964;-3.842;2022-11-23T09:51:30;33.92;;;28.80;;
29184;SDS011;16233;47.964;-3.842;2022-11-23T09:53:32;1999.90;;;999.90;;
29184;SDS011;16233;47.964;-3.842;2022-11-23T09:55:39;1999.90;;;999.90;;
29184;SDS011;16233;47.964;-3.842;2022-11-23T09:57:42;1999.90;;;999.90;;
29184;SDS011;16233;47.964;-3.842;2022-11-23T09:59:46;1999.90;;;999.90;;
29184;SDS011;16233;47.964;-3.842;2022-11-23T10:01:54;1999.90;;;999.90;;
29184;SDS011;16233;47.964;-3.842;2022-11-23T10:03:55;1999.90;;;999.90;;
29184;SDS011;16233;47.964;-3.842;2022-11-23T10:05:59;1999.90;;;999.90;;
29184;SDS011;16233;47.964;-3.842;2022-11-23T10:08:05;1999.90;;;999.90;;
29184;SDS011;16233;47.964;-3.842;2022-11-23T10:10:21;1999.90;;;999.90;;
29184;SDS011;16233;47.964;-3.842;2022-11-23T10:12:38;1999.90;;;999.90;;
29184;SDS011;16233;47.964;-3.842;2022-11-23T10:14:50;1999.90;;;999.90;;
29184;SDS011;16233;47.964;-3.842;2022-11-23T10:17:00;1999.90;;;999.90;;
29184;SDS011;16233;47.964;-3.842;2022-11-23T10:19:10;1999.90;;;999.90;;
29184;SDS011;16233;47.964;-3.842;2022-11-23T10:21:22;1999.90;;;999.90;;
29184;SDS011;16233;47.964;-3.842;2022-11-23T10:23:38;1999.90;;;999.90;;
29184;SDS011;16233;47.964;-3.842;2022-11-23T10:25:58;1999.90;;;999.90;;
29184;SDS011;16233;47.964;-3.842;2022-11-23T10:27:59;1999.90;;;999.90;;
29184;SDS011;16233;47.964;-3.842;2022-11-23T10:30:10;1999.90;;;999.90;;
29184;SDS011;16233;47.964;-3.842;2022-11-23T10:32:21;1999.90;;;999.90;;
29184;SDS011;16233;47.964;-3.842;2022-11-23T10:34:41;1999.90;;;999.90;;
29184;SDS011;16233;47.964;-3.842;2022-11-23T10:36:47;1999.90;;;999.90;;
29184;SDS011;16233;47.964;-3.842;2022-11-23T10:38:48;1999.90;;;999.90;;
29184;SDS011;16233;47.964;-3.842;2022-11-23T10:40:56;1999.90;;;999.90;;
29184;SDS011;16233;47.964;-3.842;2022-11-23T10:43:02;1999.90;;;999.90;;
29184;SDS011;16233;47.964;-3.842;2022-11-23T10:45:17;1999.90;;;999.90;;
29184;SDS011;16233;47.964;-3.842;2022-11-23T10:47:34;1999.90;;;999.90;;
29184;SDS011;16233;47.964;-3.842;2022-11-23T10:49:37;1999.90;;;999.90;;
29184;SDS011;16233;47.964;-3.842;2022-11-23T10:51:38;1999.90;;;999.90;;
29184;SDS011;16233;47.964;-3.842;2022-11-23T10:53:39;1999.90;;;999.90;;
29184;SDS011;16233;47.964;-3.842;2022-11-23T10:55:47;1999.90;;;999.90;;
29184;SDS011;16233;47.964;-3.842;2022-11-23T10:57:49;1999.90;;;999.90;;
29184;SDS011;16233;47.964;-3.842;2022-11-23T10:59:56;1999.90;;;999.90;;
29184;SDS011;16233;47.964;-3.842;2022-11-23T11:02:00;1999.90;;;999.90;;
29184;SDS011;16233;47.964;-3.842;2022-11-23T11:04:11;1999.90;;;999.90;;
29184;SDS011;16233;47.964;-3.842;2022-11-23T11:06:22;1999.90;;;999.90;;
29184;SDS011;16233;47.964;-3.842;2022-11-23T11:08:25;1999.90;;;999.90;;
29184;SDS011;16233;47.964;-3.842;2022-11-23T11:10:34;1999.90;;;999.90;;
29184;SDS011;16233;47.964;-3.842;2022-11-23T11:12:48;1999.90;;;999.90;;
29184;SDS011;16233;47.964;-3.842;2022-11-23T11:14:54;1999.90;;;999.90;;
29184;SDS011;16233;47.964;-3.842;2022-11-23T11:16:57;1999.90;;;999.90;;
29184;SDS011;16233;47.964;-3.842;2022-11-23T11:18:58;1999.90;;;999.90;;
29184;SDS011;16233;47.964;-3.842;2022-11-23T11:21:02;1999.90;;;999.90;;
29184;SDS011;16233;47.964;-3.842;2022-11-23T11:23:14;1999.90;;;999.90;;
29184;SDS011;16233;47.964;-3.842;2022-11-23T11:25:25;1999.90;;;999.90;;
29184;SDS011;16233;47.964;-3.842;2022-11-23T11:27:28;1999.90;;;999.90;;
29184;SDS011;16233;47.964;-3.842;2022-11-23T11:29:31;1999.90;;;999.90;;
29184;SDS011;16233;47.964;-3.842;2022-11-23T11:31:44;1999.90;;;999.90;;
29184;SDS011;16233;47.964;-3.842;2022-11-23T11:34:01;1999.90;;;999.90;;
29184;SDS011;16233;47.964;-3.842;2022-11-23T11:36:12;1999.90;;;999.90;;